sensor_id;sensor_type;location;lat;lon;timestamp;pressure;altitude;pressure_sealevel;temperature;humidity
11190;BME280;5651;50.926;4.718;2023-02-05T00:02:01;103650.19;;;8.38;100.00
11190;BME280;5651;50.926;4.718;2023-02-05T00:04:27;103663.13;;;8.37;100.00
11190;BME280;5651;50.926;4.718;2023-02-05T00:06:52;103657.03;;;8.36;100.00
11190;BME280;5651;50.926;4.718;2023-02-05T00:09:18;103663.03;;;8.35;100.00
11190;BME280;5651;50.926;4.718;2023-02-05T00:11:44;103654.34;;;8.35;100.00
11190;BME280;5651;50.926;4.718;2023-02-05T00:14:09;103646.53;;;8.35;100.00
11190;BME280;5651;50.926;4.718;2023-02-05T00:16:35;103643.94;;;8.35;100.00
11190;BME280;5651;50.926;4.718;2023-02-05T00:19:01;103643.94;;;8.35;100.00
11190;BME280;5651;50.926;4.718;2023-02-05T00:21:27;103643.13;;;8.36;100.00
11190;BME280;5651;50.926;4.718;2023-02-05T00:23:53;103633.94;;;8.43;100.00
11190;BME280;5651;50.926;4.718;2023-02-05T00:26:19;103623.31;;;8.38;100.00
11190;BME280;5651;50.926;4.718;2023-02-05T00:28:45;103621.41;;;8.34;100.00
11190;BME280;5651;50.926;4.718;2023-02-05T00:31:16;103615.22;;;8.32;100.00
11190;BME280;5651;50.926;4.718;2023-02-05T00:33:42;103611.72;;;8.31;100.00
11190;BME280;5651;50.926;4.718;2023-02-05T00:36:09;103612.47;;;8.29;100.00
11190;BME280;5651;50.926;4.718;2023-02-05T00:38:36;103610.56;;;8.24;100.00
11190;BME280;5651;50.926;4.718;2023-02-05T00:41:02;103591.69;;;8.29;100.00
11190;BME280;5651;50.926;4.718;2023-02-05T00:43:28;103588.75;;;8.39;100.00
11190;BME280;5651;50.926;4.718;2023-02-05T00:45:53;103586.06;;;8.37;100.00
11190;BME280;5651;50.926;4.718;2023-02-05T00:48:19;103588.91;;;8.42;100.00
11190;BME280;5651;50.926;4.718;2023-02-05T00:50:51;103584.59;;;8.43;100.00
11190;BME280;5651;50.926;4.718;2023-02-05T00:53:17;103577.25;;;8.34;100.00
11190;BME280;5651;50.926;4.718;2023-02-05T00:55:43;103572.63;;;8.28;100.00
11190;BME280;5651;50.926;4.718;2023-02-05T00:58:09;103561.94;;;8.22;100.00
11190;BME280;5651;50.926;4.718;2023-02-05T01:00:35;103580.88;;;8.19;100.00
11190;BME280;5651;50.926;4.718;2023-02-05T01:03:01;103578.97;;;8.17;100.00
11190;BME280;5651;50.926;4.718;2023-02-05T01:05:26;103577.13;;;8.14;100.00
11190;BME280;5651;50.926;4.718;2023-02-05T01:07:55;103577.81;;;8.10;100.00
11190;BME280;5651;50.926;4.718;2023-02-05T01:10:20;103567.25;;;8.07;100.00
11190;BME280;5651;50.926;4.718;2023-02-05T01:12:48;103560.19;;;8.04;100.00
11190;BME280;5651;50.926;4.718;2023-02-05T01:15:14;103575.63;;;8.01;100.00
11190;BME280;5651;50.926;4.718;2023-02-05T01:17:39;103562.56;;;8.00;100.00
11190;BME280;5651;50.926;4.718;2023-02-05T01:20:07;103556.50;;;7.99;100.00
11190;BME280;5651;50.926;4.718;2023-02-05T01:22:33;103564.19;;;7.98;100.00
11190;BME280;5651;50.926;4.718;2023-02-05T01:24:59;103565.03;;;7.97;100.00
11190;BME280;5651;50.926;4.718;2023-02-05T01:27:24;103565.72;;;7.94;100.00
11190;BME280;5651;50.926;4.718;2023-02-05T01:29:50;103573.44;;;7.92;100.00
11190;BME280;5651;50.926;4.718;2023-02-05T01:32:16;103565.66;;;7.92;100.00
11190;BME280;5651;50.926;4.718;2023-02-05T01:34:43;103563.13;;;7.94;100.00
11190;BME280;5651;50.926;4.718;2023-02-05T01:37:09;103577.78;;;7.92;100.00
11190;BME280;5651;50.926;4.718;2023-02-05T01:39:37;103578.56;;;7.91;100.00
11190;BME280;5651;50.926;4.718;2023-02-05T01:44:40;103584.41;;;7.87;100.00
11190;BME280;5651;50.926;4.718;2023-02-05T01:47:06;103586.13;;;7.86;100.00
11190;BME280;5651;50.926;4.718;2023-02-05T01:49:42;103598.13;;;7.84;100.00
11190;BME280;5651;50.926;4.718;2023-02-05T01:52:14;103596.19;;;7.80;100.00
11190;BME280;5651;50.926;4.718;2023-02-05T01:54:44;103599.59;;;7.79;100.00
11190;BME280;5651;50.926;4.718;2023-02-05T01:57:17;103600.97;;;7.89;100.00
11190;BME280;5651;50.926;4.718;2023-02-05T01:59:45;103599.91;;;7.85;100.00
11190;BME280;5651;50.926;4.718;2023-02-05T02:02:12;103595.59;;;7.86;100.00
11190;BME280;5651;50.926;4.718;2023-02-05T02:04:48;103585.97;;;7.83;100.00
11190;BME280;5651;50.926;4.718;2023-02-05T02:07:17;103582.31;;;7.80;100.00
11190;BME280;5651;50.926;4.718;2023-02-05T02:09:45;103594.34;;;7.77;100.00
11190;BME280;5651;50.926;4.718;2023-02-05T02:12:14;103594.09;;;7.73;100.00
11190;BME280;5651;50.926;4.718;2023-02-05T02:14:43;103599.28;;;7.73;100.00
11190;BME280;5651;50.926;4.718;2023-02-05T02:17:13;103607.06;;;7.73;100.00
11190;BME280;5651;50.926;4.718;2023-02-05T02:30:40;103595.72;;;7.71;100.00
11190;BME280;5651;50.926;4.718;2023-02-05T02:33:22;103580.31;;;7.74;100.00
11190;BME280;5651;50.926;4.718;2023-02-05T02:36:12;103584.91;;;7.80;100.00
11190;BME280;5651;50.926;4.718;2023-02-05T02:38:43;103588.25;;;7.77;100.00
11190;BME280;5651;50.926;4.718;2023-02-05T02:41:16;103582.97;;;7.75;100.00
11190;BME280;5651;50.926;4.718;2023-02-05T02:44:17;103587.50;;;7.80;100.00
11190;BME280;5651;50.926;4.718;2023-02-05T02:46:41;103582.97;;;7.75;100.00
11190;BME280;5651;50.926;4.718;2023-02-05T02:49:14;103576.88;;;7.75;100.00
11190;BME280;5651;50.926;4.718;2023-02-05T02:51:42;103570.06;;;7.77;100.00
11190;BME280;5651;50.926;4.718;2023-02-05T02:54:12;103585.72;;;7.78;100.00
11190;BME280;5651;50.926;4.718;2023-02-05T02:56:40;103578.66;;;7.76;100.00
11190;BME280;5651;50.926;4.718;2023-02-05T02:59:10;103578.53;;;7.73;100.00
11190;BME280;5651;50.926;4.718;2023-02-05T03:01:39;103572.44;;;7.72;100.00
11190;BME280;5651;50.926;4.718;2023-02-05T03:04:14;103572.28;;;7.69;100.00
11190;BME280;5651;50.926;4.718;2023-02-05T03:06:45;103573.91;;;7.67;100.00
11190;BME280;5651;50.926;4.718;2023-02-05T03:09:38;103562.47;;;7.64;100.00
11190;BME280;5651;50.926;4.718;2023-02-05T03:12:06;103569.34;;;7.63;100.00
11190;BME280;5651;50.926;4.718;2023-02-05T03:14:32;103571.00;;;7.61;100.00
11190;BME280;5651;50.926;4.718;2023-02-05T03:16:58;103570.81;;;7.58;100.00
11190;BME280;5651;50.926;4.718;2023-02-05T03:19:24;103566.53;;;7.58;100.00
11190;BME280;5651;50.926;4.718;2023-02-05T03:21:53;103574.16;;;7.55;100.00
11190;BME280;5651;50.926;4.718;2023-02-05T03:24:21;103570.59;;;7.53;100.00
11190;BME280;5651;50.926;4.718;2023-02-05T03:26:47;103566.06;;;7.49;100.00
11190;BME280;5651;50.926;4.718;2023-02-05T03:29:25;103559.09;;;7.48;100.00
11190;BME280;5651;50.926;4.718;2023-02-05T03:34:50;103570.09;;;7.44;100.00
11190;BME280;5651;50.926;4.718;2023-02-05T03:56:41;103585.81;;;7.30;100.00
11190;BME280;5651;50.926;4.718;2023-02-05T03:59:09;103583.97;;;7.28;100.00
11190;BME280;5651;50.926;4.718;2023-02-05T04:01:36;103573.75;;;7.31;100.00
11190;BME280;5651;50.926;4.718;2023-02-05T04:04:02;103569.38;;;7.30;100.00
11190;BME280;5651;50.926;4.718;2023-02-05T04:06:28;103560.69;;;7.29;100.00
11190;BME280;5651;50.926;4.718;2023-02-05T04:08:53;103564.34;;;7.33;100.00
11190;BME280;5651;50.926;4.718;2023-02-05T04:11:19;103564.94;;;7.27;100.00
11190;BME280;5651;50.926;4.718;2023-02-05T04:13:45;103565.00;;;7.29;100.00
11190;BME280;5651;50.926;4.718;2023-02-05T04:16:10;103565.88;;;7.29;100.00
11190;BME280;5651;50.926;4.718;2023-02-05T04:18:36;103555.34;;;7.26;100.00
11190;BME280;5651;50.926;4.718;2023-02-05T04:21:02;103562.97;;;7.23;100.00
11190;BME280;5651;50.926;4.718;2023-02-05T04:23:27;103562.81;;;7.20;100.00
11190;BME280;5651;50.926;4.718;2023-02-05T04:25:54;103571.22;;;7.16;100.00
11190;BME280;5651;50.926;4.718;2023-02-05T04:28:20;103575.59;;;7.17;100.00
11190;BME280;5651;50.926;4.718;2023-02-05T04:30:45;103571.88;;;7.12;100.00
11190;BME280;5651;50.926;4.718;2023-02-05T04:33:11;103578.75;;;7.11;100.00
11190;BME280;5651;50.926;4.718;2023-02-05T04:35:37;103583.88;;;7.10;100.00
11190;BME280;5651;50.926;4.718;2023-02-05T04:38:03;103592.44;;;7.09;100.00
11190;BME280;5651;50.926;4.718;2023-02-05T04:40:29;103593.25;;;7.08;100.00
11190;BME280;5651;50.926;4.718;2023-02-05T04:42:55;103605.34;;;7.07;100.00
11190;BME280;5651;50.926;4.718;2023-02-05T04:45:20;103602.56;;;7.04;100.00
11190;BME280;5651;50.926;4.718;2023-02-05T04:47:47;103605.47;;;7.10;100.00
11190;BME280;5651;50.926;4.718;2023-02-05T04:50:13;103600.28;;;7.10;100.00
11190;BME280;5651;50.926;4.718;2023-02-05T04:52:39;103598.34;;;7.06;100.00
11190;BME280;5651;50.926;4.718;2023-02-05T04:55:05;103606.06;;;7.05;100.00
11190;BME280;5651;50.926;4.718;2023-02-05T04:57:31;103601.03;;;7.08;100.00
11190;BME280;5651;50.926;4.718;2023-02-05T04:59:56;103608.97;;;7.11;100.00
11190;BME280;5651;50.926;4.718;2023-02-05T05:02:22;103606.22;;;7.08;100.00
11190;BME280;5651;50.926;4.718;2023-02-05T05:04:48;103598.53;;;7.09;100.00
11190;BME280;5651;50.926;4.718;2023-02-05T05:07:14;103603.81;;;7.27;100.00
11190;BME280;5651;50.926;4.718;2023-02-05T05:09:40;103601.31;;;7.29;100.00
11190;BME280;5651;50.926;4.718;2023-02-05T05:12:06;103591.50;;;7.23;100.00
11190;BME280;5651;50.926;4.718;2023-02-05T05:14:32;103602.59;;;7.21;100.00
11190;BME280;5651;50.926;4.718;2023-02-05T05:16:58;103607.59;;;7.18;100.00
11190;BME280;5651;50.926;4.718;2023-02-05T05:19:24;103600.00;;;7.21;100.00
11190;BME280;5651;50.926;4.718;2023-02-05T05:21:50;103602.03;;;7.26;100.00
11190;BME280;5651;50.926;4.718;2023-02-05T05:24:15;103598.31;;;7.21;100.00
11190;BME280;5651;50.926;4.718;2023-02-05T05:26:41;103604.31;;;7.20;100.00
11190;BME280;5651;50.926;4.718;2023-02-05T05:29:13;103602.66;;;7.22;100.00
11190;BME280;5651;50.926;4.718;2023-02-05T05:31:39;103607.97;;;7.24;100.00
11190;BME280;5651;50.926;4.718;2023-02-05T05:34:05;103610.56;;;7.24;100.00
11190;BME280;5651;50.926;4.718;2023-02-05T05:36:30;103602.66;;;7.22;100.00
11190;BME280;5651;50.926;4.718;2023-02-05T05:38:56;103598.31;;;7.21;100.00
11190;BME280;5651;50.926;4.718;2023-02-05T05:41:42;103596.69;;;7.23;100.00
11190;BME280;5651;50.926;4.718;2023-02-05T05:44:26;103592.47;;;7.25;100.00
11190;BME280;5651;50.926;4.718;2023-02-05T05:46:52;103586.31;;;7.23;100.00
11190;BME280;5651;50.926;4.718;2023-02-05T05:49:17;103585.44;;;7.23;100.00
11190;BME280;5651;50.926;4.718;2023-02-05T05:51:43;103582.84;;;7.23;100.00
11190;BME280;5651;50.926;4.718;2023-02-05T05:54:09;103583.72;;;7.23;100.00
11190;BME280;5651;50.926;4.718;2023-02-05T05:56:34;103575.84;;;7.22;100.00
11190;BME280;5651;50.926;4.718;2023-02-05T05:59:00;103575.84;;;7.22;100.00
11190;BME280;5651;50.926;4.718;2023-02-05T06:01:27;103577.47;;;7.20;100.00
11190;BME280;5651;50.926;4.718;2023-02-05T06:03:52;103571.91;;;7.28;100.00
11190;BME280;5651;50.926;4.718;2023-02-05T06:06:18;103568.41;;;7.28;100.00
11190;BME280;5651;50.926;4.718;2023-02-05T06:08:44;103566.94;;;7.33;100.00
11190;BME280;5651;50.926;4.718;2023-02-05T06:11:10;103560.88;;;7.33;100.00
11190;BME280;5651;50.926;4.718;2023-02-05T06:13:35;103560.69;;;7.29;100.00
11190;BME280;5651;50.926;4.718;2023-02-05T06:16:02;103565.38;;;7.37;100.00
11190;BME280;5651;50.926;4.718;2023-02-05T06:18:28;103564.25;;;7.32;100.00
11190;BME280;5651;50.926;4.718;2023-02-05T06:20:54;103571.41;;;7.36;100.00
11190;BME280;5651;50.926;4.718;2023-02-05T06:23:19;103567.28;;;7.39;100.00
11190;BME280;5651;50.926;4.718;2023-02-05T06:25:45;103572.78;;;7.45;100.00
11190;BME280;5651;50.926;4.718;2023-02-05T06:28:11;103578.84;;;7.46;100.00
11190;BME280;5651;50.926;4.718;2023-02-05T06:30:37;103573.03;;;7.50;100.00
11190;BME280;5651;50.926;4.718;2023-02-05T06:33:03;103581.31;;;7.43;100.00
11190;BME280;5651;50.926;4.718;2023-02-05T06:35:29;103583.53;;;7.37;100.00
11190;BME280;5651;50.926;4.718;2023-02-05T06:37:55;103580.97;;;7.37;100.00
11190;BME280;5651;50.926;4.718;2023-02-05T06:40:21;103582.91;;;7.41;100.00
11190;BME280;5651;50.926;4.718;2023-02-05T06:42:53;103591.44;;;7.38;100.00
11190;BME280;5651;50.926;4.718;2023-02-05T06:45:19;103587.94;;;7.54;100.00
11190;BME280;5651;50.926;4.718;2023-02-05T06:47:44;103594.41;;;7.46;100.00
11190;BME280;5651;50.926;4.718;2023-02-05T06:50:10;103598.19;;;7.51;100.00
11190;BME280;5651;50.926;4.718;2023-02-05T06:52:36;103595.78;;;7.56;100.00
11190;BME280;5651;50.926;4.718;2023-02-05T06:55:03;103613.63;;;7.50;100.00
11190;BME280;5651;50.926;4.718;2023-02-05T06:57:29;103608.38;;;7.48;100.00
11190;BME280;5651;50.926;4.718;2023-02-05T06:59:57;103608.19;;;7.45;100.00
11190;BME280;5651;50.926;4.718;2023-02-05T07:02:22;103613.38;;;7.45;100.00
11190;BME280;5651;50.926;4.718;2023-02-05T07:04:48;103626.34;;;7.45;100.00
11190;BME280;5651;50.926;4.718;2023-02-05T07:07:14;103637.41;;;7.41;100.00
11190;BME280;5651;50.926;4.718;2023-02-05T07:09:42;103650.84;;;7.34;100.00
11190;BME280;5651;50.926;4.718;2023-02-05T07:12:08;103650.34;;;7.24;100.00
11190;BME280;5651;50.926;4.718;2023-02-05T07:14:37;103656.06;;;7.19;100.00
11190;BME280;5651;50.926;4.718;2023-02-05T07:17:03;103679.88;;;7.11;100.00
11190;BME280;5651;50.926;4.718;2023-02-05T07:19:29;103682.22;;;7.07;100.00
11190;BME280;5651;50.926;4.718;2023-02-05T07:21:55;103692.34;;;7.02;100.00
11190;BME280;5651;50.926;4.718;2023-02-05T07:24:20;103694.03;;;7.02;100.00
11190;BME280;5651;50.926;4.718;2023-02-05T07:26:46;103702.44;;;6.97;100.00
11190;BME280;5651;50.926;4.718;2023-02-05T07:29:12;103712.38;;;6.90;100.00
11190;BME280;5651;50.926;4.718;2023-02-05T07:31:37;103727.75;;;6.87;100.00
11190;BME280;5651;50.926;4.718;2023-02-05T07:34:03;103726.25;;;6.90;100.00
11190;BME280;5651;50.926;4.718;2023-02-05T07:36:29;103740.09;;;6.76;100.00
11190;BME280;5651;50.926;4.718;2023-02-05T07:38:54;103757.69;;;6.66;100.00
11190;BME280;5651;50.926;4.718;2023-02-05T07:41:20;103758.94;;;6.58;100.00
11190;BME280;5651;50.926;4.718;2023-02-05T07:43:50;103786.28;;;6.53;100.00
11190;BME280;5651;50.926;4.718;2023-02-05T07:46:17;103773.47;;;6.56;100.00
11190;BME280;5651;50.926;4.718;2023-02-05T07:48:43;103773.91;;;6.49;100.00
11190;BME280;5651;50.926;4.718;2023-02-05T07:51:14;103775.63;;;6.48;100.00
11190;BME280;5651;50.926;4.718;2023-02-05T07:53:40;103766.22;;;6.50;100.00
11190;BME280;5651;50.926;4.718;2023-02-05T07:56:06;103781.25;;;6.41;100.00
11190;BME280;5651;50.926;4.718;2023-02-05T07:58:32;103792.28;;;6.39;100.00
11190;BME280;5651;50.926;4.718;2023-02-05T08:01:02;103792.69;;;6.45;100.00
11190;BME280;5651;50.926;4.718;2023-02-05T08:03:28;103793.47;;;6.44;100.00
11190;BME280;5651;50.926;4.718;2023-02-05T08:05:54;103803.84;;;6.44;100.00
11190;BME280;5651;50.926;4.718;2023-02-05T08:08:20;103802.22;;;6.46;100.00
11190;BME280;5651;50.926;4.718;2023-02-05T08:10:46;103817.97;;;6.49;100.00
11190;BME280;5651;50.926;4.718;2023-02-05T08:13:12;103830.91;;;6.49;100.00
11190;BME280;5651;50.926;4.718;2023-02-05T08:15:38;103828.69;;;6.55;100.00
11190;BME280;5651;50.926;4.718;2023-02-05T08:18:05;103830.91;;;6.49;100.00
11190;BME280;5651;50.926;4.718;2023-02-05T08:20:31;103841.97;;;6.46;100.00
11190;BME280;5651;50.926;4.718;2023-02-05T08:22:57;103836.47;;;6.55;100.00
11190;BME280;5651;50.926;4.718;2023-02-05T08:25:22;103842.72;;;6.59;100.00
11190;BME280;5651;50.926;4.718;2023-02-05T08:27:48;103852.00;;;6.55;100.00
11190;BME280;5651;50.926;4.718;2023-02-05T08:30:16;103858.59;;;6.50;100.00
11190;BME280;5651;50.926;4.718;2023-02-05T08:32:46;103852.63;;;6.51;100.00
11190;BME280;5651;50.926;4.718;2023-02-05T08:35:12;103857.19;;;6.55;100.00
11190;BME280;5651;50.926;4.718;2023-02-05T08:37:37;103844.34;;;6.57;100.00
11190;BME280;5651;50.926;4.718;2023-02-05T08:40:04;103857.19;;;6.55;100.00
11190;BME280;5651;50.926;4.718;2023-02-05T08:42:29;103860.97;;;6.60;100.00
11190;BME280;5651;50.926;4.718;2023-02-05T08:44:55;103857.75;;;6.64;100.00
11190;BME280;5651;50.926;4.718;2023-02-05T08:47:23;103858.19;;;6.72;100.00
11190;BME280;5651;50.926;4.718;2023-02-05T08:49:49;103867.09;;;6.76;100.00
11190;BME280;5651;50.926;4.718;2023-02-05T08:52:15;103871.91;;;6.85;100.00
11190;BME280;5651;50.926;4.718;2023-02-05T08:54:41;103867.91;;;6.90;100.00
11190;BME280;5651;50.926;4.718;2023-02-05T08:57:07;103866.56;;;6.96;100.00
11190;BME280;5651;50.926;4.718;2023-02-05T08:59:33;103869.25;;;6.98;100.00
11190;BME280;5651;50.926;4.718;2023-02-05T09:02:00;103844.03;;;7.10;100.00
11190;BME280;5651;50.926;4.718;2023-02-05T09:04:26;103851.28;;;7.16;100.00
11190;BME280;5651;50.926;4.718;2023-02-05T09:06:52;103861.50;;;7.13;100.00
11190;BME280;5651;50.926;4.718;2023-02-05T09:09:17;103848.16;;;7.22;100.00
11190;BME280;5651;50.926;4.718;2023-02-05T09:11:46;103849.66;;;7.33;100.00
11190;BME280;5651;50.926;4.718;2023-02-05T09:14:13;103845.00;;;7.42;100.00
11190;BME280;5651;50.926;4.718;2023-02-05T09:16:39;103856.09;;;7.40;100.00
11190;BME280;5651;50.926;4.718;2023-02-05T09:19:06;103864.97;;;7.43;100.00
11190;BME280;5651;50.926;4.718;2023-02-05T09:21:32;103878.38;;;7.36;100.00
11190;BME280;5651;50.926;4.718;2023-02-05T09:23:58;103864.78;;;7.25;100.00
11190;BME280;5651;50.926;4.718;2023-02-05T09:26:24;103862.19;;;7.25;100.00
11190;BME280;5651;50.926;4.718;2023-02-05T09:28:51;103888.06;;;7.24;100.00
11190;BME280;5651;50.926;4.718;2023-02-05T09:31:18;103874.63;;;7.16;100.00
11190;BME280;5651;50.926;4.718;2023-02-05T09:33:45;103870.69;;;7.23;100.00
11190;BME280;5651;50.926;4.718;2023-02-05T09:36:16;103874.28;;;7.25;100.00
11190;BME280;5651;50.926;4.718;2023-02-05T09:38:43;103867.38;;;7.25;100.00
11190;BME280;5651;50.926;4.718;2023-02-05T09:43:57;103881.88;;;7.37;100.00
11190;BME280;5651;50.926;4.718;2023-02-05T09:46:46;103906.19;;;7.39;100.00
11190;BME280;5651;50.926;4.718;2023-02-05T09:49:21;103898.78;;;7.45;100.00
11190;BME280;5651;50.926;4.718;2023-02-05T09:51:56;103903.97;;;7.45;100.00
11190;BME280;5651;50.926;4.718;2023-02-05T09:54:23;103893.13;;;7.52;100.00
11190;BME280;5651;50.926;4.718;2023-02-05T09:56:53;103900.13;;;7.53;100.00
11190;BME280;5651;50.926;4.718;2023-02-05T09:59:23;103902.44;;;7.49;100.00
11190;BME280;5651;50.926;4.718;2023-02-05T10:01:56;103891.72;;;7.57;100.00
11190;BME280;5651;50.926;4.718;2023-02-05T10:04:23;103879.09;;;7.64;100.00
11190;BME280;5651;50.926;4.718;2023-02-05T10:12:47;103886.19;;;7.51;100.00
11190;BME280;5651;50.926;4.718;2023-02-05T10:18:18;103894.47;;;7.30;100.00
11190;BME280;5651;50.926;4.718;2023-02-05T10:24:22;103856.75;;;7.21;100.00
11190;BME280;5651;50.926;4.718;2023-02-05T10:27:09;103864.16;;;7.14;100.00
11190;BME280;5651;50.926;4.718;2023-02-05T10:30:12;103854.34;;;7.24;100.00
11190;BME280;5651;50.926;4.718;2023-02-05T10:32:54;103897.41;;;7.07;100.00
11190;BME280;5651;50.926;4.718;2023-02-05T10:36:01;103899.84;;;7.04;100.00
11190;BME280;5651;50.926;4.718;2023-02-05T10:38:30;103890.03;;;7.13;100.00
11190;BME280;5651;50.926;4.718;2023-02-05T10:41:05;103896.72;;;7.24;100.00
11190;BME280;5651;50.926;4.718;2023-02-05T10:46:33;103876.78;;;7.38;100.00
11190;BME280;5651;50.926;4.718;2023-02-05T10:49:15;103859.41;;;7.52;100.00
11190;BME280;5651;50.926;4.718;2023-02-05T10:51:44;103870.59;;;7.51;100.00
11190;BME280;5651;50.926;4.718;2023-02-05T10:54:31;103864.84;;;7.57;100.00
11190;BME280;5651;50.926;4.718;2023-02-05T10:56:59;103866.50;;;7.55;100.00
11190;BME280;5651;50.926;4.718;2023-02-05T10:59:34;103858.25;;;7.62;100.00
11190;BME280;5651;50.926;4.718;2023-02-05T11:02:06;103856.88;;;7.69;100.00
11190;BME280;5651;50.926;4.718;2023-02-05T11:07:13;103863.09;;;7.87;100.00
11190;BME280;5651;50.926;4.718;2023-02-05T11:09:42;103852.38;;;7.81;100.00
11190;BME280;5651;50.926;4.718;2023-02-05T11:12:21;103847.41;;;7.69;100.00
11190;BME280;5651;50.926;4.718;2023-02-05T11:14:58;103855.06;;;7.68;100.00
11190;BME280;5651;50.926;4.718;2023-02-05T11:17:32;103849.88;;;7.68;100.00
11190;BME280;5651;50.926;4.718;2023-02-05T11:22:44;103872.81;;;7.60;100.00
11190;BME280;5651;50.926;4.718;2023-02-05T11:25:22;103864.56;;;7.67;100.00
11190;BME280;5651;50.926;4.718;2023-02-05T11:30:29;103865.00;;;7.75;100.00
11190;BME280;5651;50.926;4.718;2023-02-05T11:32:58;103865.97;;;7.77;100.00
11190;BME280;5651;50.926;4.718;2023-02-05T11:35:26;103854.91;;;7.96;100.00
11190;BME280;5651;50.926;4.718;2023-02-05T11:38:06;103859.81;;;8.06;100.00
11190;BME280;5651;50.926;4.718;2023-02-05T11:40:34;103854.88;;;8.11;100.00
11190;BME280;5651;50.926;4.718;2023-02-05T11:43:06;103846.63;;;8.18;100.00
11190;BME280;5651;50.926;4.718;2023-02-05T11:45:35;103850.66;;;8.30;100.00
11190;BME280;5651;50.926;4.718;2023-02-05T11:48:20;103849.69;;;8.28;100.00
11190;BME280;5651;50.926;4.718;2023-02-05T11:50:47;103849.13;;;8.33;100.00
11190;BME280;5651;50.926;4.718;2023-02-05T11:53:15;103840.28;;;8.46;100.00
11190;BME280;5651;50.926;4.718;2023-02-05T11:55:42;103831.84;;;8.50;100.00
11190;BME280;5651;50.926;4.718;2023-02-05T11:58:19;103832.41;;;8.45;100.00
11190;BME280;5651;50.926;4.718;2023-02-05T12:00:57;103829.81;;;8.61;100.00
11190;BME280;5651;50.926;4.718;2023-02-05T12:03:26;103832.03;;;8.70;100.00
11190;BME280;5651;50.926;4.718;2023-02-05T12:08:46;103832.91;;;8.70;100.00
11190;BME280;5651;50.926;4.718;2023-02-05T12:16:44;103818.38;;;8.57;99.86
11190;BME280;5651;50.926;4.718;2023-02-05T12:19:30;103824.28;;;8.71;99.12
11190;BME280;5651;50.926;4.718;2023-02-05T12:25:09;103811.53;;;9.29;100.00
11190;BME280;5651;50.926;4.718;2023-02-05T12:43:36;103825.66;;;9.34;95.10
11190;BME280;5651;50.926;4.718;2023-02-05T12:54:59;103808.03;;;10.81;93.25
11190;BME280;5651;50.926;4.718;2023-02-05T12:57:41;103828.75;;;10.77;87.73
11190;BME280;5651;50.926;4.718;2023-02-05T13:00:16;103831.84;;;11.31;88.27
11190;BME280;5651;50.926;4.718;2023-02-05T13:05:33;103830.44;;;11.18;82.09
11190;BME280;5651;50.926;4.718;2023-02-05T13:08:40;103813.28;;;11.46;84.40
11190;BME280;5651;50.926;4.718;2023-02-05T13:13:51;103817.34;;;11.83;84.19
11190;BME280;5651;50.926;4.718;2023-02-05T13:16:18;103829.44;;;11.35;80.28
11190;BME280;5651;50.926;4.718;2023-02-05T13:19:00;103831.50;;;11.23;80.46
11190;BME280;5651;50.926;4.718;2023-02-05T13:21:29;103829.34;;;10.91;80.25
11190;BME280;5651;50.926;4.718;2023-02-05T13:24:43;103821.34;;;11.08;81.80
11190;BME280;5651;50.926;4.718;2023-02-05T13:27:35;103819.09;;;11.38;82.83
11190;BME280;5651;50.926;4.718;2023-02-05T13:30:32;103818.50;;;11.46;81.50
11190;BME280;5651;50.926;4.718;2023-02-05T13:33:03;103816.44;;;11.60;81.49
11190;BME280;5651;50.926;4.718;2023-02-05T13:35:33;103825.31;;;11.63;80.78
11190;BME280;5651;50.926;4.718;2023-02-05T13:40:54;103826.75;;;11.56;79.75
11190;BME280;5651;50.926;4.718;2023-02-05T13:46:30;103836.56;;;12.30;81.57
11190;BME280;5651;50.926;4.718;2023-02-05T13:55:09;103840.16;;;11.87;77.42
11190;BME280;5651;50.926;4.718;2023-02-05T14:00:39;103844.78;;;12.17;77.58
11190;BME280;5651;50.926;4.718;2023-02-05T14:03:07;103839.41;;;12.36;77.07
11190;BME280;5651;50.926;4.718;2023-02-05T14:05:38;103837.81;;;11.95;75.19
11190;BME280;5651;50.926;4.718;2023-02-05T14:08:18;103832.25;;;12.31;77.11
11190;BME280;5651;50.926;4.718;2023-02-05T14:10:45;103837.78;;;12.16;75.36
11190;BME280;5651;50.926;4.718;2023-02-05T14:13:21;103832.56;;;12.90;77.71
11190;BME280;5651;50.926;4.718;2023-02-05T14:15:49;103838.16;;;13.01;75.49
11190;BME280;5651;50.926;4.718;2023-02-05T14:23:58;103845.28;;;13.87;72.26
11190;BME280;5651;50.926;4.718;2023-02-05T14:29:42;103849.22;;;13.73;68.98
11190;BME280;5651;50.926;4.718;2023-02-05T14:32:54;103845.00;;;13.23;69.28
11190;BME280;5651;50.926;4.718;2023-02-05T14:37:46;103847.22;;;11.89;68.51
11190;BME280;5651;50.926;4.718;2023-02-05T14:42:55;103850.66;;;11.66;71.10
11190;BME280;5651;50.926;4.718;2023-02-05T14:45:22;103843.31;;;11.78;72.71
11190;BME280;5651;50.926;4.718;2023-02-05T14:47:50;103838.34;;;11.63;71.05
11190;BME280;5651;50.926;4.718;2023-02-05T14:50:21;103837.94;;;11.75;71.18
11190;BME280;5651;50.926;4.718;2023-02-05T14:52:55;103846.25;;;11.87;72.22
11190;BME280;5651;50.926;4.718;2023-02-05T14:58:03;103845.09;;;11.14;69.46
11190;BME280;5651;50.926;4.718;2023-02-05T15:00:40;103851.66;;;11.04;71.12
11190;BME280;5651;50.926;4.718;2023-02-05T15:13:20;103854.38;;;11.50;72.01
11190;BME280;5651;50.926;4.718;2023-02-05T15:23:50;103872.53;;;10.85;72.29
11190;BME280;5651;50.926;4.718;2023-02-05T15:26:18;103867.41;;;10.86;72.32
11190;BME280;5651;50.926;4.718;2023-02-05T15:29:15;103874.78;;;10.75;72.12
11190;BME280;5651;50.926;4.718;2023-02-05T15:32:15;103878.88;;;10.70;71.28
11190;BME280;5651;50.926;4.718;2023-02-05T15:34:44;103887.94;;;10.59;72.53
11190;BME280;5651;50.926;4.718;2023-02-05T15:37:30;103886.47;;;10.26;71.96
11190;BME280;5651;50.926;4.718;2023-02-05T15:42:44;103892.63;;;9.91;72.59
11190;BME280;5651;50.926;4.718;2023-02-05T15:50:43;103890.13;;;10.12;75.04
11190;BME280;5651;50.926;4.718;2023-02-05T15:55:50;103897.09;;;9.57;73.14
11190;BME280;5651;50.926;4.718;2023-02-05T15:58:20;103902.34;;;9.41;73.79